sensor_id;sensor_type;location;lat;lon;timestamp;P1;durP1;ratioP1;P2;durP2;ratioP2
11998;SDS011;40817;51.520;9.954;2022-10-20T00:00:55;11.32;;;7.10;;
11998;SDS011;40817;51.520;9.954;2022-10-20T00:03:24;11.95;;;7.63;;
11998;SDS011;40817;51.520;9.954;2022-10-20T00:05:53;10.40;;;6.70;;
11998;SDS011;40817;51.520;9.954;2022-10-20T00:08:31;10.60;;;6.70;;
11998;SDS011;40817;51.520;9.954;2022-10-20T00:10:58;8.93;;;6.38;;
11998;SDS011;40817;51.520;9.954;2022-10-20T00:13:26;9.07;;;6.47;;
11998;SDS011;40817;51.520;9.954;2022-10-20T00:15:54;11.40;;;7.00;;
11998;SDS011;40817;51.520;9.954;2022-10-20T00:18:24;10.38;;;6.65;;
11998;SDS011;40817;51.520;9.954;2022-10-20T00:20:53;11.40;;;6.32;;
11998;SDS011;40817;51.520;9.954;2022-10-20T00:23:21;8.00;;;5.53;;
11998;SDS011;40817;51.520;9.954;2022-10-20T00:25:58;9.73;;;5.80;;
11998;SDS011;40817;51.520;9.954;2022-10-20T00:28:28;11.40;;;5.20;;
11998;SDS011;40817;51.520;9.954;2022-10-20T00:30:55;8.98;;;4.95;;
11998;SDS011;40817;51.520;9.954;2022-10-20T00:33:25;9.88;;;6.05;;
11998;SDS011;40817;51.520;9.954;2022-10-20T00:35:52;10.90;;;5.43;;
11998;SDS011;40817;51.520;9.954;2022-10-20T00:38:19;11.35;;;6.15;;
11998;SDS011;40817;51.520;9.954;2022-10-20T00:40:47;8.23;;;5.22;;
11998;SDS011;40817;51.520;9.954;2022-10-20T00:43:15;9.68;;;5.57;;
11998;SDS011;40817;51.520;9.954;2022-10-20T00:45:44;8.73;;;5.18;;
11998;SDS011;40817;51.520;9.954;2022-10-20T00:48:20;8.60;;;5.38;;
11998;SDS011;40817;51.520;9.954;2022-10-20T00:50:55;10.07;;;5.82;;
11998;SDS011;40817;51.520;9.954;2022-10-20T00:53:23;9.95;;;6.00;;
11998;SDS011;40817;51.520;9.954;2022-10-20T00:55:54;10.57;;;5.28;;
11998;SDS011;40817;51.520;9.954;2022-10-20T00:58:24;10.63;;;5.35;;
11998;SDS011;40817;51.520;9.954;2022-10-20T01:00:54;11.02;;;5.68;;
11998;SDS011;40817;51.520;9.954;2022-10-20T01:03:28;7.57;;;5.05;;
11998;SDS011;40817;51.520;9.954;2022-10-20T01:06:03;8.48;;;5.53;;
11998;SDS011;40817;51.520;9.954;2022-10-20T01:08:31;8.35;;;5.85;;
11998;SDS011;40817;51.520;9.954;2022-10-20T01:11:01;8.07;;;5.50;;
11998;SDS011;40817;51.520;9.954;2022-10-20T01:13:50;10.98;;;5.78;;
11998;SDS011;40817;51.520;9.954;2022-10-20T01:16:36;7.45;;;4.68;;
11998;SDS011;40817;51.520;9.954;2022-10-20T01:23:03;7.72;;;4.82;;
11998;SDS011;40817;51.520;9.954;2022-10-20T01:29:42;8.30;;;3.80;;
11998;SDS011;40817;51.520;9.954;2022-10-20T01:32:18;7.82;;;4.18;;
11998;SDS011;40817;51.520;9.954;2022-10-20T01:34:51;5.72;;;3.85;;
11998;SDS011;40817;51.520;9.954;2022-10-20T01:37:29;7.55;;;3.78;;
11998;SDS011;40817;51.520;9.954;2022-10-20T01:40:05;6.75;;;3.67;;
11998;SDS011;40817;51.520;9.954;2022-10-20T01:42:43;9.48;;;3.65;;
11998;SDS011;40817;51.520;9.954;2022-10-20T01:45:16;19.13;;;5.00;;
11998;SDS011;40817;51.520;9.954;2022-10-20T01:47:46;6.28;;;3.95;;
11998;SDS011;40817;51.520;9.954;2022-10-20T01:50:15;7.47;;;3.67;;
11998;SDS011;40817;51.520;9.954;2022-10-20T01:52:45;9.32;;;3.42;;
11998;SDS011;40817;51.520;9.954;2022-10-20T01:55:14;6.38;;;3.70;;
11998;SDS011;40817;51.520;9.954;2022-10-20T01:57:47;5.53;;;3.60;;
11998;SDS011;40817;51.520;9.954;2022-10-20T02:00:41;6.75;;;3.53;;
11998;SDS011;40817;51.520;9.954;2022-10-20T02:03:16;6.80;;;3.80;;
11998;SDS011;40817;51.520;9.954;2022-10-20T02:06:03;4.97;;;3.42;;
11998;SDS011;40817;51.520;9.954;2022-10-20T02:08:54;11.70;;;3.90;;
11998;SDS011;40817;51.520;9.954;2022-10-20T02:11:25;8.18;;;4.05;;
11998;SDS011;40817;51.520;9.954;2022-10-20T02:14:06;9.38;;;4.13;;
11998;SDS011;40817;51.520;9.954;2022-10-20T02:16:38;7.78;;;4.43;;
11998;SDS011;40817;51.520;9.954;2022-10-20T02:19:12;5.60;;;3.75;;
11998;SDS011;40817;51.520;9.954;2022-10-20T02:21:44;5.68;;;4.20;;
11998;SDS011;40817;51.520;9.954;2022-10-20T02:24:13;7.30;;;4.82;;
11998;SDS011;40817;51.520;9.954;2022-10-20T02:26:42;6.80;;;3.80;;
11998;SDS011;40817;51.520;9.954;2022-10-20T02:29:13;8.10;;;5.35;;
11998;SDS011;40817;51.520;9.954;2022-10-20T02:31:43;6.60;;;4.60;;
11998;SDS011;40817;51.520;9.954;2022-10-20T02:34:12;6.93;;;4.22;;
11998;SDS011;40817;51.520;9.954;2022-10-20T02:36:40;8.07;;;4.78;;
11998;SDS011;40817;51.520;9.954;2022-10-20T02:39:09;8.35;;;4.93;;
11998;SDS011;40817;51.520;9.954;2022-10-20T02:41:37;8.88;;;4.90;;
11998;SDS011;40817;51.520;9.954;2022-10-20T02:44:05;8.75;;;5.32;;
11998;SDS011;40817;51.520;9.954;2022-10-20T02:46:33;8.45;;;5.00;;
11998;SDS011;40817;51.520;9.954;2022-10-20T02:49:01;8.95;;;5.45;;
11998;SDS011;40817;51.520;9.954;2022-10-20T02:51:28;10.05;;;5.00;;
11998;SDS011;40817;51.520;9.954;2022-10-20T02:53:56;7.75;;;4.82;;
11998;SDS011;40817;51.520;9.954;2022-10-20T02:56:23;7.38;;;5.20;;
11998;SDS011;40817;51.520;9.954;2022-10-20T02:58:51;8.00;;;5.28;;
11998;SDS011;40817;51.520;9.954;2022-10-20T03:01:18;7.95;;;5.35;;
11998;SDS011;40817;51.520;9.954;2022-10-20T03:03:58;9.63;;;5.57;;
11998;SDS011;40817;51.520;9.954;2022-10-20T03:06:26;8.73;;;5.47;;
11998;SDS011;40817;51.520;9.954;2022-10-20T03:08:53;10.05;;;5.43;;
11998;SDS011;40817;51.520;9.954;2022-10-20T03:11:21;7.13;;;5.38;;
11998;SDS011;40817;51.520;9.954;2022-10-20T03:13:48;8.75;;;5.75;;
11998;SDS011;40817;51.520;9.954;2022-10-20T03:16:16;10.02;;;5.15;;
11998;SDS011;40817;51.520;9.954;2022-10-20T03:18:43;8.73;;;5.18;;
11998;SDS011;40817;51.520;9.954;2022-10-20T03:21:12;8.38;;;5.70;;
11998;SDS011;40817;51.520;9.954;2022-10-20T03:23:41;8.40;;;5.53;;
11998;SDS011;40817;51.520;9.954;2022-10-20T03:26:09;8.68;;;5.85;;
11998;SDS011;40817;51.520;9.954;2022-10-20T03:28:38;7.57;;;5.15;;
11998;SDS011;40817;51.520;9.954;2022-10-20T03:31:06;6.88;;;5.55;;
11998;SDS011;40817;51.520;9.954;2022-10-20T03:33:34;10.23;;;6.25;;
11998;SDS011;40817;51.520;9.954;2022-10-20T03:36:02;7.32;;;5.72;;
11998;SDS011;40817;51.520;9.954;2022-10-20T03:38:32;8.73;;;5.22;;
11998;SDS011;40817;51.520;9.954;2022-10-20T03:41:00;10.65;;;5.95;;
11998;SDS011;40817;51.520;9.954;2022-10-20T03:43:27;10.77;;;5.90;;
11998;SDS011;40817;51.520;9.954;2022-10-20T03:46:00;8.73;;;5.68;;
11998;SDS011;40817;51.520;9.954;2022-10-20T03:48:29;9.75;;;5.80;;
11998;SDS011;40817;51.520;9.954;2022-10-20T03:50:56;9.93;;;6.75;;
11998;SDS011;40817;51.520;9.954;2022-10-20T03:53:26;9.02;;;6.72;;
11998;SDS011;40817;51.520;9.954;2022-10-20T03:55:55;12.00;;;6.82;;
11998;SDS011;40817;51.520;9.954;2022-10-20T03:58:23;8.15;;;5.88;;
11998;SDS011;40817;51.520;9.954;2022-10-20T04:00:50;11.50;;;6.88;;
11998;SDS011;40817;51.520;9.954;2022-10-20T04:03:19;8.82;;;6.57;;
11998;SDS011;40817;51.520;9.954;2022-10-20T04:05:46;8.60;;;6.50;;
11998;SDS011;40817;51.520;9.954;2022-10-20T04:08:33;9.27;;;6.65;;
11998;SDS011;40817;51.520;9.954;2022-10-20T04:11:01;8.75;;;6.35;;
11998;SDS011;40817;51.520;9.954;2022-10-20T04:13:29;9.32;;;6.70;;
11998;SDS011;40817;51.520;9.954;2022-10-20T04:15:57;9.20;;;6.70;;
11998;SDS011;40817;51.520;9.954;2022-10-20T04:18:24;11.40;;;6.78;;
11998;SDS011;40817;51.520;9.954;2022-10-20T04:20:52;10.20;;;6.70;;
11998;SDS011;40817;51.520;9.954;2022-10-20T04:23:19;9.65;;;7.05;;
11998;SDS011;40817;51.520;9.954;2022-10-20T04:25:46;10.10;;;6.70;;
11998;SDS011;40817;51.520;9.954;2022-10-20T04:28:16;10.73;;;6.43;;
11998;SDS011;40817;51.520;9.954;2022-10-20T04:30:45;8.88;;;6.18;;
11998;SDS011;40817;51.520;9.954;2022-10-20T04:33:14;14.63;;;6.93;;
11998;SDS011;40817;51.520;9.954;2022-10-20T04:35:42;10.25;;;6.32;;
11998;SDS011;40817;51.520;9.954;2022-10-20T04:38:09;11.32;;;5.90;;
11998;SDS011;40817;51.520;9.954;2022-10-20T04:40:37;10.38;;;6.57;;
11998;SDS011;40817;51.520;9.954;2022-10-20T04:43:04;8.77;;;5.80;;
11998;SDS011;40817;51.520;9.954;2022-10-20T04:45:33;8.32;;;6.07;;
11998;SDS011;40817;51.520;9.954;2022-10-20T04:48:03;9.13;;;6.68;;
11998;SDS011;40817;51.520;9.954;2022-10-20T04:50:31;11.10;;;7.13;;
11998;SDS011;40817;51.520;9.954;2022-10-20T04:52:59;10.23;;;6.18;;
11998;SDS011;40817;51.520;9.954;2022-10-20T04:55:26;11.07;;;7.00;;
11998;SDS011;40817;51.520;9.954;2022-10-20T04:57:54;8.20;;;6.93;;
11998;SDS011;40817;51.520;9.954;2022-10-20T05:00:21;10.13;;;6.35;;
11998;SDS011;40817;51.520;9.954;2022-10-20T05:02:50;11.23;;;7.65;;
11998;SDS011;40817;51.520;9.954;2022-10-20T05:05:18;10.85;;;7.07;;
11998;SDS011;40817;51.520;9.954;2022-10-20T05:07:45;11.02;;;6.70;;
11998;SDS011;40817;51.520;9.954;2022-10-20T05:10:13;13.23;;;7.63;;
11998;SDS011;40817;51.520;9.954;2022-10-20T05:12:40;12.68;;;7.85;;
11998;SDS011;40817;51.520;9.954;2022-10-20T05:15:08;12.25;;;7.45;;
11998;SDS011;40817;51.520;9.954;2022-10-20T05:17:36;10.13;;;7.25;;
11998;SDS011;40817;51.520;9.954;2022-10-20T05:20:05;10.85;;;7.22;;
11998;SDS011;40817;51.520;9.954;2022-10-20T05:22:35;10.50;;;7.82;;
11998;SDS011;40817;51.520;9.954;2022-10-20T05:25:02;12.05;;;7.45;;
11998;SDS011;40817;51.520;9.954;2022-10-20T05:27:31;14.38;;;7.22;;
11998;SDS011;40817;51.520;9.954;2022-10-20T05:29:59;11.48;;;7.55;;
11998;SDS011;40817;51.520;9.954;2022-10-20T05:32:27;12.63;;;8.95;;
11998;SDS011;40817;51.520;9.954;2022-10-20T05:34:55;12.60;;;8.20;;
11998;SDS011;40817;51.520;9.954;2022-10-20T05:37:24;11.45;;;8.07;;
11998;SDS011;40817;51.520;9.954;2022-10-20T05:39:51;13.38;;;7.57;;
11998;SDS011;40817;51.520;9.954;2022-10-20T05:42:18;11.27;;;7.72;;
11998;SDS011;40817;51.520;9.954;2022-10-20T05:44:46;9.95;;;6.95;;
11998;SDS011;40817;51.520;9.954;2022-10-20T05:47:14;11.27;;;7.88;;
11998;SDS011;40817;51.520;9.954;2022-10-20T05:49:41;11.88;;;8.07;;
11998;SDS011;40817;51.520;9.954;2022-10-20T05:52:09;15.15;;;8.80;;
11998;SDS011;40817;51.520;9.954;2022-10-20T05:54:37;13.15;;;8.55;;
11998;SDS011;40817;51.520;9.954;2022-10-20T05:57:05;12.18;;;8.00;;
11998;SDS011;40817;51.520;9.954;2022-10-20T05:59:33;12.68;;;7.78;;
11998;SDS011;40817;51.520;9.954;2022-10-20T06:02:00;15.57;;;8.32;;
11998;SDS011;40817;51.520;9.954;2022-10-20T06:04:29;13.38;;;8.25;;
11998;SDS011;40817;51.520;9.954;2022-10-20T06:06:57;11.05;;;7.70;;
11998;SDS011;40817;51.520;9.954;2022-10-20T06:09:24;11.70;;;8.25;;
11998;SDS011;40817;51.520;9.954;2022-10-20T06:11:53;11.10;;;7.70;;
11998;SDS011;40817;51.520;9.954;2022-10-20T06:14:21;12.18;;;7.90;;
11998;SDS011;40817;51.520;9.954;2022-10-20T06:16:50;12.98;;;8.30;;
11998;SDS011;40817;51.520;9.954;2022-10-20T06:19:18;12.77;;;7.78;;
11998;SDS011;40817;51.520;9.954;2022-10-20T06:21:47;10.98;;;7.60;;
11998;SDS011;40817;51.520;9.954;2022-10-20T06:24:15;12.43;;;8.60;;
11998;SDS011;40817;51.520;9.954;2022-10-20T06:26:43;11.35;;;7.88;;
11998;SDS011;40817;51.520;9.954;2022-10-20T06:29:13;11.20;;;7.90;;
11998;SDS011;40817;51.520;9.954;2022-10-20T06:31:44;11.70;;;7.57;;
11998;SDS011;40817;51.520;9.954;2022-10-20T06:34:14;14.73;;;9.55;;
11998;SDS011;40817;51.520;9.954;2022-10-20T06:36:44;11.20;;;7.90;;
11998;SDS011;40817;51.520;9.954;2022-10-20T06:39:13;14.05;;;8.52;;
11998;SDS011;40817;51.520;9.954;2022-10-20T06:41:45;11.95;;;7.68;;
11998;SDS011;40817;51.520;9.954;2022-10-20T06:44:16;12.98;;;7.45;;
11998;SDS011;40817;51.520;9.954;2022-10-20T06:46:44;11.30;;;7.43;;
11998;SDS011;40817;51.520;9.954;2022-10-20T06:49:12;14.20;;;8.05;;
11998;SDS011;40817;51.520;9.954;2022-10-20T06:51:40;11.73;;;7.25;;
11998;SDS011;40817;51.520;9.954;2022-10-20T06:54:08;10.55;;;7.72;;
11998;SDS011;40817;51.520;9.954;2022-10-20T06:56:36;11.70;;;8.02;;
11998;SDS011;40817;51.520;9.954;2022-10-20T06:59:05;9.95;;;7.05;;
11998;SDS011;40817;51.520;9.954;2022-10-20T07:01:35;13.63;;;7.88;;
11998;SDS011;40817;51.520;9.954;2022-10-20T07:04:05;14.35;;;7.63;;
11998;SDS011;40817;51.520;9.954;2022-10-20T07:06:40;10.30;;;7.18;;
11998;SDS011;40817;51.520;9.954;2022-10-20T07:09:11;10.82;;;7.32;;
11998;SDS011;40817;51.520;9.954;2022-10-20T07:11:41;11.45;;;6.80;;
11998;SDS011;40817;51.520;9.954;2022-10-20T07:14:10;9.55;;;6.82;;
11998;SDS011;40817;51.520;9.954;2022-10-20T07:16:40;10.15;;;7.30;;
11998;SDS011;40817;51.520;9.954;2022-10-20T07:19:07;10.57;;;7.45;;
11998;SDS011;40817;51.520;9.954;2022-10-20T07:21:35;9.02;;;6.53;;
11998;SDS011;40817;51.520;9.954;2022-10-20T07:24:03;12.15;;;7.53;;
11998;SDS011;40817;51.520;9.954;2022-10-20T07:26:34;10.02;;;7.60;;
11998;SDS011;40817;51.520;9.954;2022-10-20T07:29:05;10.90;;;7.20;;
11998;SDS011;40817;51.520;9.954;2022-10-20T07:31:34;10.85;;;6.75;;
11998;SDS011;40817;51.520;9.954;2022-10-20T07:34:07;9.23;;;6.72;;
11998;SDS011;40817;51.520;9.954;2022-10-20T07:36:38;10.07;;;5.90;;
11998;SDS011;40817;51.520;9.954;2022-10-20T07:39:09;9.18;;;6.45;;
11998;SDS011;40817;51.520;9.954;2022-10-20T07:41:38;10.25;;;6.75;;
11998;SDS011;40817;51.520;9.954;2022-10-20T07:44:08;12.30;;;7.03;;
11998;SDS011;40817;51.520;9.954;2022-10-20T07:46:35;12.00;;;7.22;;
11998;SDS011;40817;51.520;9.954;2022-10-20T07:49:03;14.18;;;7.50;;
11998;SDS011;40817;51.520;9.954;2022-10-20T07:51:32;8.73;;;6.50;;
11998;SDS011;40817;51.520;9.954;2022-10-20T07:54:00;9.15;;;6.60;;
11998;SDS011;40817;51.520;9.954;2022-10-20T07:56:31;9.55;;;6.63;;
11998;SDS011;40817;51.520;9.954;2022-10-20T07:59:02;9.18;;;5.65;;
11998;SDS011;40817;51.520;9.954;2022-10-20T08:01:30;8.75;;;5.88;;
11998;SDS011;40817;51.520;9.954;2022-10-20T08:03:58;10.43;;;6.72;;
11998;SDS011;40817;51.520;9.954;2022-10-20T08:06:26;8.70;;;6.43;;
11998;SDS011;40817;51.520;9.954;2022-10-20T08:08:55;12.40;;;6.65;;
11998;SDS011;40817;51.520;9.954;2022-10-20T08:11:22;8.70;;;6.10;;
11998;SDS011;40817;51.520;9.954;2022-10-20T08:13:50;9.68;;;6.03;;
11998;SDS011;40817;51.520;9.954;2022-10-20T08:16:18;13.30;;;7.38;;
11998;SDS011;40817;51.520;9.954;2022-10-20T08:18:46;9.38;;;6.85;;
11998;SDS011;40817;51.520;9.954;2022-10-20T08:21:14;11.68;;;6.07;;
11998;SDS011;40817;51.520;9.954;2022-10-20T08:23:44;7.63;;;6.18;;
11998;SDS011;40817;51.520;9.954;2022-10-20T08:26:17;13.95;;;7.32;;
11998;SDS011;40817;51.520;9.954;2022-10-20T08:28:48;8.25;;;6.10;;
11998;SDS011;40817;51.520;9.954;2022-10-20T08:31:18;8.65;;;6.57;;
11998;SDS011;40817;51.520;9.954;2022-10-20T08:33:46;9.23;;;6.70;;
11998;SDS011;40817;51.520;9.954;2022-10-20T08:36:14;9.57;;;5.95;;
11998;SDS011;40817;51.520;9.954;2022-10-20T08:38:41;7.07;;;5.05;;
11998;SDS011;40817;51.520;9.954;2022-10-20T08:41:12;8.10;;;5.45;;
11998;SDS011;40817;51.520;9.954;2022-10-20T08:43:46;11.48;;;7.38;;
11998;SDS011;40817;51.520;9.954;2022-10-20T08:46:18;11.20;;;5.80;;
11998;SDS011;40817;51.520;9.954;2022-10-20T08:48:52;10.65;;;6.35;;
11998;SDS011;40817;51.520;9.954;2022-10-20T08:51:21;8.38;;;6.65;;
11998;SDS011;40817;51.520;9.954;2022-10-20T08:53:55;8.40;;;6.20;;
11998;SDS011;40817;51.520;9.954;2022-10-20T08:56:29;10.88;;;6.03;;
11998;SDS011;40817;51.520;9.954;2022-10-20T08:59:00;10.98;;;6.80;;
11998;SDS011;40817;51.520;9.954;2022-10-20T09:01:29;9.13;;;5.60;;
11998;SDS011;40817;51.520;9.954;2022-10-20T09:04:02;9.57;;;6.32;;
11998;SDS011;40817;51.520;9.954;2022-10-20T09:06:39;8.73;;;6.57;;
11998;SDS011;40817;51.520;9.954;2022-10-20T09:09:11;8.95;;;5.90;;
11998;SDS011;40817;51.520;9.954;2022-10-20T09:11:43;9.43;;;6.43;;
11998;SDS011;40817;51.520;9.954;2022-10-20T09:14:11;9.25;;;6.00;;
11998;SDS011;40817;51.520;9.954;2022-10-20T09:16:41;9.00;;;6.00;;
11998;SDS011;40817;51.520;9.954;2022-10-20T09:19:14;9.48;;;6.50;;
11998;SDS011;40817;51.520;9.954;2022-10-20T09:21:44;9.05;;;6.28;;
11998;SDS011;40817;51.520;9.954;2022-10-20T09:24:15;8.73;;;6.30;;
11998;SDS011;40817;51.520;9.954;2022-10-20T09:26:47;8.15;;;6.00;;
11998;SDS011;40817;51.520;9.954;2022-10-20T09:29:17;7.55;;;5.40;;
11998;SDS011;40817;51.520;9.954;2022-10-20T09:31:48;7.78;;;6.03;;
11998;SDS011;40817;51.520;9.954;2022-10-20T09:34:19;7.88;;;6.25;;
11998;SDS011;40817;51.520;9.954;2022-10-20T09:36:49;9.93;;;6.22;;
11998;SDS011;40817;51.520;9.954;2022-10-20T09:39:23;8.00;;;6.10;;
11998;SDS011;40817;51.520;9.954;2022-10-20T09:41:59;7.60;;;5.53;;
11998;SDS011;40817;51.520;9.954;2022-10-20T09:44:33;7.80;;;5.78;;
11998;SDS011;40817;51.520;9.954;2022-10-20T09:47:13;10.40;;;5.82;;
11998;SDS011;40817;51.520;9.954;2022-10-20T09:49:42;13.00;;;7.15;;
11998;SDS011;40817;51.520;9.954;2022-10-20T09:52:15;7.88;;;6.25;;
11998;SDS011;40817;51.520;9.954;2022-10-20T09:57:18;7.53;;;5.05;;
11998;SDS011;40817;51.520;9.954;2022-10-20T09:59:48;7.93;;;5.88;;
11998;SDS011;40817;51.520;9.954;2022-10-20T10:02:26;10.00;;;5.90;;
11998;SDS011;40817;51.520;9.954;2022-10-20T10:05:13;10.50;;;6.10;;
11998;SDS011;40817;51.520;9.954;2022-10-20T10:07:55;9.90;;;5.50;;
11998;SDS011;40817;51.520;9.954;2022-10-20T10:10:26;8.65;;;5.43;;
11998;SDS011;40817;51.520;9.954;2022-10-20T10:12:57;8.10;;;5.28;;
11998;SDS011;40817;51.520;9.954;2022-10-20T10:15:29;9.30;;;5.88;;
11998;SDS011;40817;51.520;9.954;2022-10-20T10:18:10;10.35;;;5.80;;
11998;SDS011;40817;51.520;9.954;2022-10-20T10:20:39;11.57;;;5.57;;
11998;SDS011;40817;51.520;9.954;2022-10-20T10:23:20;7.32;;;4.93;;
11998;SDS011;40817;51.520;9.954;2022-10-20T10:25:50;8.10;;;5.22;;
11998;SDS011;40817;51.520;9.954;2022-10-20T10:28:26;8.55;;;5.65;;
11998;SDS011;40817;51.520;9.954;2022-10-20T10:31:04;7.65;;;5.22;;
11998;SDS011;40817;51.520;9.954;2022-10-20T10:33:50;6.95;;;4.50;;
11998;SDS011;40817;51.520;9.954;2022-10-20T10:36:29;7.13;;;5.20;;
11998;SDS011;40817;51.520;9.954;2022-10-20T10:39:00;8.20;;;5.30;;
11998;SDS011;40817;51.520;9.954;2022-10-20T10:41:36;6.78;;;5.80;;
11998;SDS011;40817;51.520;9.954;2022-10-20T10:44:27;7.18;;;5.45;;
11998;SDS011;40817;51.520;9.954;2022-10-20T10:47:22;9.07;;;6.00;;
11998;SDS011;40817;51.520;9.954;2022-10-20T10:50:30;7.22;;;5.50;;
11998;SDS011;40817;51.520;9.954;2022-10-20T10:53:15;10.65;;;5.25;;
11998;SDS011;40817;51.520;9.954;2022-10-20T10:55:59;8.05;;;5.00;;
11998;SDS011;40817;51.520;9.954;2022-10-20T10:58:41;7.55;;;4.85;;
11998;SDS011;40817;51.520;9.954;2022-10-20T11:01:37;7.03;;;5.13;;
11998;SDS011;40817;51.520;9.954;2022-10-20T11:04:45;6.10;;;4.80;;
11998;SDS011;40817;51.520;9.954;2022-10-20T11:07:44;14.55;;;4.78;;
11998;SDS011;40817;51.520;9.954;2022-10-20T11:10:21;7.30;;;5.00;;
11998;SDS011;40817;51.520;9.954;2022-10-20T11:13:02;7.95;;;4.90;;
11998;SDS011;40817;51.520;9.954;2022-10-20T11:22:12;6.90;;;4.80;;
11998;SDS011;40817;51.520;9.954;2022-10-20T11:24:57;6.95;;;5.00;;
11998;SDS011;40817;51.520;9.954;2022-10-20T11:27:39;7.93;;;5.20;;
11998;SDS011;40817;51.520;9.954;2022-10-20T11:30:11;6.35;;;5.15;;
11998;SDS011;40817;51.520;9.954;2022-10-20T11:32:44;8.98;;;4.85;;
11998;SDS011;40817;51.520;9.954;2022-10-20T11:35:27;7.10;;;4.20;;
11998;SDS011;40817;51.520;9.954;2022-10-20T11:38:08;7.65;;;5.07;;
11998;SDS011;40817;51.520;9.954;2022-10-20T11:40:46;5.45;;;4.78;;
11998;SDS011;40817;51.520;9.954;2022-10-20T11:43:24;8.27;;;4.50;;
11998;SDS011;40817;51.520;9.954;2022-10-20T11:45:59;7.25;;;4.35;;
11998;SDS011;40817;51.520;9.954;2022-10-20T11:48:32;6.10;;;4.32;;
11998;SDS011;40817;51.520;9.954;2022-10-20T11:51:12;6.18;;;4.05;;
11998;SDS011;40817;51.520;9.954;2022-10-20T11:57:48;7.70;;;4.53;;
11998;SDS011;40817;51.520;9.954;2022-10-20T12:00:40;6.68;;;4.55;;
11998;SDS011;40817;51.520;9.954;2022-10-20T12:06:53;6.50;;;4.40;;
11998;SDS011;40817;51.520;9.954;2022-10-20T12:13:03;6.45;;;3.70;;
11998;SDS011;40817;51.520;9.954;2022-10-20T12:15:52;6.63;;;4.00;;
11998;SDS011;40817;51.520;9.954;2022-10-20T12:18:24;6.30;;;4.45;;
11998;SDS011;40817;51.520;9.954;2022-10-20T12:20:55;8.00;;;3.95;;
11998;SDS011;40817;51.520;9.954;2022-10-20T12:26:35;9.35;;;4.88;;
11998;SDS011;40817;51.520;9.954;2022-10-20T12:33:08;13.25;;;4.65;;
11998;SDS011;40817;51.520;9.954;2022-10-20T12:39:06;5.93;;;4.60;;
11998;SDS011;40817;51.520;9.954;2022-10-20T12:41:55;8.93;;;4.63;;
11998;SDS011;40817;51.520;9.954;2022-10-20T12:44:26;4.95;;;4.35;;
11998;SDS011;40817;51.520;9.954;2022-10-20T12:47:04;7.80;;;4.72;;
11998;SDS011;40817;51.520;9.954;2022-10-20T12:49:34;11.27;;;4.30;;
11998;SDS011;40817;51.520;9.954;2022-10-20T12:52:06;7.13;;;4.45;;
11998;SDS011;40817;51.520;9.954;2022-10-20T12:54:46;7.60;;;4.45;;
11998;SDS011;40817;51.520;9.954;2022-10-20T12:57:25;7.25;;;5.18;;
11998;SDS011;40817;51.520;9.954;2022-10-20T12:59:59;5.60;;;3.97;;
11998;SDS011;40817;51.520;9.954;2022-10-20T13:02:31;6.35;;;4.00;;
11998;SDS011;40817;51.520;9.954;2022-10-20T13:05:27;7.85;;;4.47;;
11998;SDS011;40817;51.520;9.954;2022-10-20T13:08:23;5.32;;;3.70;;
11998;SDS011;40817;51.520;9.954;2022-10-20T13:17:33;5.97;;;3.95;;
11998;SDS011;40817;51.520;9.954;2022-10-20T13:20:22;6.20;;;4.15;;
11998;SDS011;40817;51.520;9.954;2022-10-20T13:22:54;5.93;;;4.57;;
11998;SDS011;40817;51.520;9.954;2022-10-20T13:25:28;7.63;;;4.25;;
11998;SDS011;40817;51.520;9.954;2022-10-20T13:28:05;6.97;;;4.20;;
11998;SDS011;40817;51.520;9.954;2022-10-20T13:30:58;7.90;;;4.47;;
11998;SDS011;40817;51.520;9.954;2022-10-20T13:33:43;7.43;;;4.22;;
11998;SDS011;40817;51.520;9.954;2022-10-20T13:36:27;5.63;;;4.00;;
11998;SDS011;40817;51.520;9.954;2022-10-20T13:39:14;6.97;;;4.22;;
11998;SDS011;40817;51.520;9.954;2022-10-20T13:41:53;7.65;;;3.88;;
11998;SDS011;40817;51.520;9.954;2022-10-20T13:44:41;6.30;;;3.95;;
11998;SDS011;40817;51.520;9.954;2022-10-20T13:47:34;5.68;;;3.42;;
11998;SDS011;40817;51.520;9.954;2022-10-20T13:50:19;7.40;;;3.78;;
11998;SDS011;40817;51.520;9.954;2022-10-20T13:52:52;4.78;;;3.78;;
11998;SDS011;40817;51.520;9.954;2022-10-20T13:55:25;6.72;;;3.95;;
11998;SDS011;40817;51.520;9.954;2022-10-20T13:58:05;5.93;;;3.65;;
11998;SDS011;40817;51.520;9.954;2022-10-20T14:00:54;7.10;;;4.00;;
11998;SDS011;40817;51.520;9.954;2022-10-20T14:03:27;6.50;;;4.57;;
11998;SDS011;40817;51.520;9.954;2022-10-20T14:06:00;6.47;;;4.50;;
11998;SDS011;40817;51.520;9.954;2022-10-20T14:08:28;5.65;;;4.00;;
11998;SDS011;40817;51.520;9.954;2022-10-20T14:10:56;6.70;;;4.30;;
11998;SDS011;40817;51.520;9.954;2022-10-20T14:13:29;7.47;;;4.53;;
11998;SDS011;40817;51.520;9.954;2022-10-20T14:16:03;5.35;;;4.10;;
11998;SDS011;40817;51.520;9.954;2022-10-20T14:18:40;7.03;;;4.95;;
11998;SDS011;40817;51.520;9.954;2022-10-20T14:21:13;7.78;;;4.78;;
11998;SDS011;40817;51.520;9.954;2022-10-20T14:23:43;7.30;;;4.60;;
11998;SDS011;40817;51.520;9.954;2022-10-20T14:26:14;7.47;;;4.57;;
11998;SDS011;40817;51.520;9.954;2022-10-20T14:28:45;6.15;;;4.57;;
11998;SDS011;40817;51.520;9.954;2022-10-20T14:31:16;7.25;;;4.43;;
11998;SDS011;40817;51.520;9.954;2022-10-20T14:33:50;7.47;;;4.75;;
11998;SDS011;40817;51.520;9.954;2022-10-20T14:36:19;4.88;;;4.07;;
11998;SDS011;40817;51.520;9.954;2022-10-20T14:38:51;6.20;;;4.65;;
11998;SDS011;40817;51.520;9.954;2022-10-20T14:41:22;5.90;;;4.30;;
11998;SDS011;40817;51.520;9.954;2022-10-20T14:43:54;7.38;;;4.32;;
11998;SDS011;40817;51.520;9.954;2022-10-20T14:46:27;6.65;;;4.00;;
11998;SDS011;40817;51.520;9.954;2022-10-20T14:48:59;6.55;;;4.10;;
11998;SDS011;40817;51.520;9.954;2022-10-20T14:51:27;5.68;;;4.18;;
11998;SDS011;40817;51.520;9.954;2022-10-20T14:54:13;8.45;;;3.88;;
11998;SDS011;40817;51.520;9.954;2022-10-20T14:57:01;6.68;;;3.80;;
11998;SDS011;40817;51.520;9.954;2022-10-20T15:03:03;5.57;;;4.07;;
11998;SDS011;40817;51.520;9.954;2022-10-20T15:05:36;9.80;;;4.80;;
11998;SDS011;40817;51.520;9.954;2022-10-20T15:08:20;5.65;;;4.03;;
11998;SDS011;40817;51.520;9.954;2022-10-20T15:10:52;7.40;;;3.88;;
11998;SDS011;40817;51.520;9.954;2022-10-20T15:13:21;7.53;;;3.63;;
11998;SDS011;40817;51.520;9.954;2022-10-20T15:15:53;8.20;;;3.83;;
11998;SDS011;40817;51.520;9.954;2022-10-20T15:18:24;4.75;;;3.65;;
11998;SDS011;40817;51.520;9.954;2022-10-20T15:20:53;4.82;;;3.70;;
11998;SDS011;40817;51.520;9.954;2022-10-20T15:23:22;7.95;;;4.50;;
11998;SDS011;40817;51.520;9.954;2022-10-20T15:25:53;6.38;;;4.20;;
11998;SDS011;40817;51.520;9.954;2022-10-20T15:28:35;8.38;;;3.88;;
11998;SDS011;40817;51.520;9.954;2022-10-20T15:31:07;7.10;;;4.10;;
11998;SDS011;40817;51.520;9.954;2022-10-20T15:33:46;5.22;;;4.13;;
11998;SDS011;40817;51.520;9.954;2022-10-20T15:36:15;7.20;;;4.25;;
11998;SDS011;40817;51.520;9.954;2022-10-20T15:38:46;5.05;;;3.72;;
11998;SDS011;40817;51.520;9.954;2022-10-20T15:41:15;6.28;;;4.13;;
11998;SDS011;40817;51.520;9.954;2022-10-20T15:43:45;6.47;;;3.50;;
11998;SDS011;40817;51.520;9.954;2022-10-20T15:46:14;5.93;;;4.32;;
11998;SDS011;40817;51.520;9.954;2022-10-20T15:48:43;6.75;;;4.40;;
11998;SDS011;40817;51.520;9.954;2022-10-20T15:51:14;7.97;;;4.60;;
11998;SDS011;40817;51.520;9.954;2022-10-20T15:53:47;6.25;;;4.00;;
11998;SDS011;40817;51.520;9.954;2022-10-20T15:56:15;6.07;;;4.25;;
11998;SDS011;40817;51.520;9.954;2022-10-20T15:58:43;5.85;;;3.88;;
11998;SDS011;40817;51.520;9.954;2022-10-20T16:01:11;7.35;;;4.20;;
11998;SDS011;40817;51.520;9.954;2022-10-20T16:03:41;6.00;;;4.28;;